Time;durP1;ratioP1;P1;durP2;ratioP2;P2;SDS_P1;SDS_P2;PMS_P1;PMS_P2;Temp;Humidity;BMP_temperature;BMP_pressure;BME280_temperature;BME280_humidity;BME280_pressure;Samples;Min_cycle;Max_cycle;Signal;HPM_P1;HPM_P2
2022/05/30 00:00:44;;;;;;;3.90;2.63;;;;;;;8.45;85.24;101325.16;5032311;28;20040;-68
2022/05/30 00:03:11;;;;;;;6.55;2.63;;;;;;;8.29;85.83;101336.47;5030420;28;20137;-68
2022/05/30 00:05:36;;;;;;;10.23;3.00;;;;;;;8.23;86.50;101334.09;5018411;28;20118;-68
2022/05/30 00:08:02;;;;;;;4.65;2.05;;;;;;;8.18;86.22;101330.81;5029949;28;20051;-68
2022/05/30 00:10:28;;;;;;;5.05;2.45;;;;;;;8.10;86.70;101324.97;5029254;28;20038;-68
2022/05/30 00:12:55;;;;;;;5.47;2.38;;;;;;;8.09;86.42;101323.25;5031081;28;20131;-68
2022/05/30 00:15:21;;;;;;;7.18;2.70;;;;;;;8.18;86.27;101327.25;5029871;28;20797;-68
2022/05/30 00:17:47;;;;;;;6.07;2.70;;;;;;;8.05;86.27;101327.81;5032021;28;20071;-69
2022/05/30 00:20:14;;;;;;;11.68;3.17;;;;;;;8.05;85.88;101324.31;5031350;28;20037;-68
2022/05/30 00:22:39;;;;;;;10.55;2.63;;;;;;;8.06;86.35;101318.06;5032299;28;20063;-68
2022/05/30 00:25:05;;;;;;;8.23;2.58;;;;;;;8.00;86.43;101326.31;5030982;28;20503;-68
2022/05/30 00:27:31;;;;;;;9.38;2.35;;;;;;;7.88;86.70;101324.19;5031619;28;20045;-68
2022/05/30 00:29:57;;;;;;;7.30;2.75;;;;;;;7.82;86.97;101325.31;5031202;28;20037;-68
2022/05/30 00:32:23;;;;;;;4.93;2.70;;;;;;;7.84;86.83;101315.50;5031135;28;20102;-68
2022/05/30 00:34:49;;;;;;;7.88;2.45;;;;;;;7.95;86.38;101315.03;5030831;28;20041;-68
2022/05/30 00:37:14;;;;;;;7.80;2.92;;;;;;;8.02;85.71;101313.81;5029122;28;20167;-68
2022/05/30 00:39:40;;;;;;;6.55;2.25;;;;;;;8.03;86.73;101312.88;5034396;28;20037;-69
2022/05/30 00:42:18;;;;;;;9.35;2.60;;;;;;;8.03;86.56;101308.44;5030400;28;20665;-68
2022/05/30 00:44:45;;;;;;;11.05;2.72;;;;;;;8.03;86.44;101308.44;5029543;28;20060;-68
2022/05/30 00:47:11;;;;;;;14.15;3.28;;;;;;;8.09;86.81;101302.00;5031312;28;20037;-68
2022/05/30 00:49:39;;;;;;;8.10;2.80;;;;;;;8.12;86.79;101304.50;5030651;28;20115;-68
2022/05/30 00:52:07;;;;;;;4.50;2.22;;;;;;;8.17;87.14;101296.31;5023605;28;20076;-68
2022/05/30 00:54:37;;;;;;;5.95;2.78;;;;;;;8.26;87.17;101299.41;5025898;28;20456;-68
2022/05/30 00:57:20;;;;;;;8.90;2.95;;;;;;;8.26;86.84;101299.41;5031156;28;20040;-68
2022/05/30 00:59:52;;;;;;;11.48;3.08;;;;;;;8.35;86.50;101292.81;5031876;28;20048;-68
2022/05/30 01:02:19;;;;;;;7.18;3.10;;;;;;;8.41;86.76;101297.88;5029288;28;20033;-68
2022/05/30 01:07:30;;;;;;;7.03;2.63;;;;;;;8.52;85.36;101300.00;5016145;28;20079;-68
2022/05/30 01:09:56;;;;;;;9.52;2.70;;;;;;;8.51;86.37;101301.81;5028676;28;20074;-68
2022/05/30 01:12:41;;;;;;;11.68;2.47;;;;;;;8.54;86.42;101296.38;5028320;28;20170;-68
2022/05/30 01:15:11;;;;;;;7.95;2.70;;;;;;;8.53;86.25;101299.97;5030455;28;20079;-68
2022/05/30 01:17:50;;;;;;;6.45;2.33;;;;;;;8.55;85.96;101298.09;5034984;28;20052;-68
2022/05/30 01:20:54;;;;;;;9.50;2.70;;;;;;;8.50;86.11;101297.44;5032535;28;20045;-68
2022/05/30 01:23:42;;;;;;;8.50;3.20;;;;;;;8.30;86.97;101298.34;5030259;28;20057;-68
2022/05/30 01:26:18;;;;;;;6.30;2.50;;;;;;;8.30;87.39;101306.31;5037880;28;20047;-68
2022/05/30 01:28:48;;;;;;;4.15;2.55;;;;;;;8.36;87.18;101302.53;5034224;28;20068;-69
2022/05/30 01:31:15;;;;;;;13.45;2.72;;;;;;;8.40;86.52;101300.59;5032915;28;20039;-68
2022/05/30 01:33:41;;;;;;;12.02;2.70;;;;;;;8.51;86.52;101298.28;5033626;28;20041;-68
2022/05/30 01:36:07;;;;;;;3.53;1.98;;;;;;;8.40;86.17;101288.19;5033214;28;20045;-68
2022/05/30 01:38:32;;;;;;;7.53;2.88;;;;;;;8.41;86.69;101284.59;5023092;28;20040;-68
2022/05/30 01:41:00;;;;;;;10.27;3.30;;;;;;;8.41;86.59;101281.91;5031311;28;20033;-69
2022/05/30 01:43:27;;;;;;;8.63;2.60;;;;;;;8.43;86.79;101279.19;5032334;28;20028;-68
2022/05/30 01:46:10;;;;;;;12.02;2.92;;;;;;;8.47;86.68;101276.31;5033031;28;20868;-68
2022/05/30 01:48:41;;;;;;;;;;;;;;;8.33;86.99;101278.72;5015429;28;20037;-68
2022/05/30 01:51:06;;;;;;;6.03;2.88;;;;;;;8.23;86.52;101275.66;5026102;28;19925;-68
2022/05/30 01:53:32;;;;;;;7.13;2.33;;;;;;;8.22;87.35;101275.72;5017953;28;20025;-68
2022/05/30 01:56:19;;;;;;;8.68;2.88;;;;;;;8.15;87.84;101282.25;5032967;28;20292;-69
2022/05/30 01:58:45;;;;;;;12.10;3.42;;;;;;;8.01;87.65;101274.91;5032692;28;20142;-68
2022/05/30 02:01:30;;;;;;;16.52;3.63;;;;;;;7.92;88.16;101278.84;5034168;28;20155;-69
2022/05/30 02:03:58;;;;;;;9.10;2.70;;;;;;;7.87;88.27;101279.97;5009867;28;20030;-68
2022/05/30 02:06:26;;;;;;;11.10;3.30;;;;;;;7.82;87.87;101280.19;5026604;28;20726;-68
2022/05/30 02:08:53;;;;;;;9.52;3.03;;;;;;;7.74;88.86;101275.25;5035029;28;20031;-68
2022/05/30 02:11:22;;;;;;;6.10;2.42;;;;;;;7.59;88.57;101272.41;5030154;28;20052;-69
2022/05/30 02:13:50;;;;;;;11.52;3.10;;;;;;;7.50;88.56;101268.34;5027091;28;20202;-69
2022/05/30 02:19:18;;;;;;;5.07;2.83;;;;;;;7.38;88.67;101282.13;5019945;28;20398;-68
2022/05/30 02:21:45;;;;;;;9.70;3.45;;;;;;;7.35;89.46;101276.97;5014690;28;20058;-68
2022/05/30 02:24:11;;;;;;;7.80;3.13;;;;;;;7.22;88.89;101268.66;5013193;28;20029;-68
2022/05/30 02:26:37;;;;;;;5.03;2.60;;;;;;;7.11;89.87;101278.88;5014265;28;20042;-68
2022/05/30 02:29:05;;;;;;;7.25;3.00;;;;;;;6.97;89.79;101271.50;5011432;28;20737;-68
2022/05/30 02:31:31;;;;;;;9.07;3.75;;;;;;;7.03;89.61;101278.31;5012884;28;20044;-68
2022/05/30 02:36:44;;;;;;;5.05;2.70;;;;;;;6.99;89.42;101278.47;5012157;28;20033;-68
2022/05/30 02:39:13;;;;;;;15.52;3.60;;;;;;;6.87;89.61;101280.75;5021602;28;20026;-68
2022/05/30 02:42:02;;;;;;;5.00;3.00;;;;;;;6.88;89.80;101280.72;5012852;28;20172;-68
2022/05/30 02:44:31;;;;;;;7.82;3.60;;;;;;;6.85;89.73;101278.16;5032389;28;20040;-68
2022/05/30 02:46:57;;;;;;;3.22;1.45;;;;;;;6.60;88.82;101277.44;5019358;28;20091;-68
2022/05/30 02:49:25;;;;;;;3.67;2.05;;;;;;;6.57;88.93;101282.84;5027473;28;20032;-67
2022/05/30 02:51:51;;;;;;;4.70;2.10;;;;;;;6.57;89.44;101277.53;5015115;28;20116;-67
2022/05/30 02:54:18;;;;;;;7.30;2.92;;;;;;;6.66;89.72;101282.50;5023127;28;20071;-68
2022/05/30 02:57:11;;;;;;;7.05;2.55;;;;;;;6.61;89.75;101281.81;5025136;28;20485;-69
2022/05/30 02:59:39;;;;;;;17.95;3.90;;;;;;;6.65;89.16;101281.63;5018464;28;20099;-67
2022/05/30 03:02:06;;;;;;;6.75;3.28;;;;;;;6.70;89.69;101273.50;5031225;28;20033;-67
2022/05/30 03:04:31;;;;;;;8.25;2.95;;;;;;;6.69;89.23;101279.72;5034258;28;20056;-68
2022/05/30 03:06:57;;;;;;;11.77;3.40;;;;;;;6.71;89.27;101278.72;5022230;28;20042;-67
2022/05/30 03:09:22;;;;;;;8.75;3.20;;;;;;;6.70;90.23;101281.44;5030863;28;20040;-68
2022/05/30 03:12:08;;;;;;;6.43;3.20;;;;;;;6.66;89.52;101283.34;5033247;28;20490;-68
2022/05/30 03:14:34;;;;;;;13.27;3.60;;;;;;;6.48;89.41;101278.78;5033597;28;20041;-68
2022/05/30 03:17:00;;;;;;;3.80;2.30;;;;;;;6.42;89.24;101279.88;5034614;28;20063;-68
2022/05/30 03:19:25;;;;;;;6.70;2.78;;;;;;;6.39;89.00;101284.44;5023677;28;20056;-67
2022/05/30 03:21:52;;;;;;;2.47;2.28;;;;;;;6.29;88.54;101280.44;5029247;28;20098;-68
2022/05/30 03:24:18;;;;;;;7.53;2.30;;;;;;;6.14;88.95;101287.19;5031559;28;20041;-68
2022/05/30 03:26:43;;;;;;;3.13;1.20;;;;;;;6.02;89.95;101296.41;5033290;28;20037;-68
2022/05/30 03:29:10;;;;;;;4.53;1.25;;;;;;;6.02;90.08;101287.63;5032917;28;20140;-68
2022/05/30 03:31:41;;;;;;;2.03;1.83;;;;;;;6.16;90.26;101285.31;5032428;28;20045;-69
2022/05/30 03:34:06;;;;;;;9.85;3.60;;;;;;;6.08;91.24;101285.63;5031378;28;20690;-68
2022/05/30 03:36:32;;;;;;;5.55;1.65;;;;;;;6.00;89.52;101286.81;5031785;28;20605;-69
2022/05/30 03:39:16;;;;;;;2.50;2.15;;;;;;;6.09;90.40;101283.84;5032392;28;20908;-68
2022/05/30 03:42:00;;;;;;;4.68;2.65;;;;;;;6.13;89.50;101288.09;5032812;28;20060;-68
2022/05/30 03:44:38;;;;;;;3.03;2.00;;;;;;;6.14;89.79;101284.53;5016705;28;20492;-68
2022/05/30 03:47:03;;;;;;;7.82;2.60;;;;;;;6.19;90.42;101285.22;5030871;28;20037;-68
2022/05/30 03:49:29;;;;;;;4.05;2.25;;;;;;;6.26;90.84;101286.69;5029295;28;20115;-69
2022/05/30 03:51:54;;;;;;;4.88;2.65;;;;;;;6.20;91.34;101290.44;4996264;28;20553;-68
2022/05/30 03:54:20;;;;;;;9.73;2.67;;;;;;;6.26;90.25;101283.19;5022168;28;20041;-68
2022/05/30 03:56:46;;;;;;;7.82;3.05;;;;;;;6.32;90.61;101283.81;5010802;28;20041;-68
2022/05/30 03:59:12;;;;;;;5.10;2.90;;;;;;;6.32;91.01;101289.09;5013894;28;20028;-68
2022/05/30 04:01:38;;;;;;;9.18;3.45;;;;;;;6.25;92.59;101286.75;5008346;28;20033;-69
2022/05/30 04:04:04;;;;;;;9.70;3.03;;;;;;;6.45;89.91;101281.56;5012190;28;20037;-68
2022/05/30 04:06:29;;;;;;;8.20;3.22;;;;;;;6.53;90.47;101282.13;5029530;28;20107;-69
2022/05/30 04:08:56;;;;;;;5.03;2.90;;;;;;;6.48;89.65;101282.31;5028737;28;20040;-68
2022/05/30 04:11:47;;;;;;;10.73;3.75;;;;;;;6.55;91.79;101276.75;5030193;28;20053;-68
2022/05/30 04:14:45;;;;;;;6.68;3.70;;;;;;;6.81;90.35;101279.22;5031084;28;20052;-68
2022/05/30 04:17:14;;;;;;;6.72;3.72;;;;;;;6.92;90.56;101276.13;5028733;28;20044;-68
2022/05/30 04:19:40;;;;;;;10.43;3.58;;;;;;;7.10;90.42;101279.81;5030218;28;20220;-68
2022/05/30 04:22:09;;;;;;;11.10;3.65;;;;;;;7.22;89.37;101276.63;5028963;28;20831;-69
2022/05/30 04:24:55;;;;;;;11.63;3.60;;;;;;;7.32;89.37;101282.41;5030590;28;20153;-68
2022/05/30 04:27:22;;;;;;;5.97;2.90;;;;;;;7.43;88.98;101275.72;5022409;28;20026;-68
2022/05/30 04:29:48;;;;;;;5.25;2.78;;;;;;;7.57;89.06;101274.25;5012086;28;20045;-68
2022/05/30 04:32:37;;;;;;;6.10;2.60;;;;;;;7.60;87.47;101272.34;5011570;28;20044;-68
2022/05/30 04:35:05;;;;;;;5.25;2.92;;;;;;;7.81;88.28;101275.81;5010585;28;20033;-68
2022/05/30 04:37:30;;;;;;;7.93;3.38;;;;;;;7.84;88.72;101283.66;5016887;28;20033;-68
2022/05/30 04:40:19;;;;;;;6.32;3.53;;;;;;;7.93;87.85;101282.34;5016235;28;20156;-68
2022/05/30 04:43:03;;;;;;;7.25;3.58;;;;;;;8.08;87.86;101276.34;5010798;28;20426;-68
2022/05/30 04:46:11;;;;;;;8.63;3.88;;;;;;;8.30;87.71;101285.06;5027595;28;20564;-68
2022/05/30 04:48:44;;;;;;;12.55;4.55;;;;;;;8.41;87.87;101273.94;5012019;28;20037;-68
2022/05/30 04:51:10;;;;;;;6.13;4.13;;;;;;;8.54;86.96;101279.56;5012604;28;20044;-68
2022/05/30 04:53:36;;;;;;;9.70;3.95;;;;;;;8.67;87.00;101278.00;5014200;28;20056;-68
2022/05/30 04:56:27;;;;;;;7.72;4.13;;;;;;;8.86;86.57;101283.31;5017181;28;20114;-68
2022/05/30 04:59:04;;;;;;;10.02;4.00;;;;;;;8.99;86.37;101288.88;5032528;28;20036;-68
2022/05/30 05:01:30;;;;;;;7.85;4.35;;;;;;;9.03;85.36;101288.63;5013230;28;20045;-68
2022/05/30 05:03:56;;;;;;;9.07;4.00;;;;;;;9.07;85.50;101284.88;5032063;28;20129;-68
2022/05/30 05:06:22;;;;;;;7.00;3.78;;;;;;;9.34;84.40;101285.31;5013605;28;20450;-68
2022/05/30 05:09:05;;;;;;;7.78;3.83;;;;;;;9.38;83.99;101286.00;5011893;28;20048;-68
2022/05/30 05:11:35;;;;;;;8.82;3.83;;;;;;;9.55;84.28;101290.47;5015300;28;20048;-68
2022/05/30 05:14:19;;;;;;;10.68;3.50;;;;;;;9.62;83.98;101286.53;5031729;28;20079;-68
2022/05/30 05:17:06;;;;;;;5.88;3.75;;;;;;;9.81;83.03;101292.63;5023042;28;20544;-68
2022/05/30 05:19:33;;;;;;;14.05;4.13;;;;;;;9.94;83.01;101286.63;5015199;28;20049;-69
2022/05/30 05:21:59;;;;;;;9.68;4.38;;;;;;;10.05;82.51;101290.44;5017076;28;20841;-68
2022/05/30 05:24:25;;;;;;;6.68;3.85;;;;;;;10.23;82.47;101291.25;5011894;28;20048;-68
2022/05/30 05:27:08;;;;;;;5.95;2.90;;;;;;;10.16;81.35;101286.34;5020179;28;20642;-67
2022/05/30 05:29:35;;;;;;;4.80;3.70;;;;;;;10.43;80.48;101300.84;5019226;28;20499;-68
2022/05/30 05:32:01;;;;;;;3.85;3.03;;;;;;;10.61;80.90;101301.63;5012319;28;20076;-70
2022/05/30 05:34:27;;;;;;;6.60;3.22;;;;;;;10.49;80.34;101297.84;5014814;28;20064;-70
2022/05/30 05:36:52;;;;;;;6.45;3.58;;;;;;;10.74;79.64;101293.78;5011630;28;20045;-69
2022/05/30 05:39:18;;;;;;;7.90;3.90;;;;;;;10.66;79.97;101296.03;5025731;28;20032;-68
2022/05/30 05:41:52;;;;;;;4.18;3.33;;;;;;;11.00;78.09;101300.31;4997338;28;20037;-68
2022/05/30 05:44:18;;;;;;;7.90;3.13;;;;;;;10.89;78.73;101301.81;5012557;28;20519;-68
2022/05/30 05:46:45;;;;;;;5.20;3.45;;;;;;;11.07;79.37;101297.19;4997163;28;20045;-69
2022/05/30 05:49:11;;;;;;;4.97;3.20;;;;;;;11.05;78.04;101299.09;4998522;28;20236;-68
2022/05/30 05:51:39;;;;;;;11.07;3.33;;;;;;;11.12;77.65;101302.25;5032664;28;20025;-68
2022/05/30 05:54:08;;;;;;;9.63;3.25;;;;;;;11.51;77.34;101299.06;5030261;28;20566;-68
2022/05/30 05:56:34;;;;;;;6.10;3.22;;;;;;;11.73;75.72;101292.41;5031344;28;20036;-68
2022/05/30 05:59:03;;;;;;;7.70;2.85;;;;;;;11.80;74.99;101288.44;5029884;28;20071;-68
2022/05/30 06:01:31;;;;;;;4.13;3.03;;;;;;;12.14;74.24;101288.06;5029092;28;20045;-67
2022/05/30 06:04:00;;;;;;;3.95;2.30;;;;;;;12.34;71.24;101291.28;5029589;28;20203;-68
2022/05/30 06:06:45;;;;;;;4.22;2.72;;;;;;;12.52;71.70;101289.28;5030989;28;20052;-68
2022/05/30 06:09:13;;;;;;;6.38;2.42;;;;;;;12.44;70.49;101292.41;5017232;28;20119;-68
2022/05/30 06:11:45;;;;;;;5.32;2.30;;;;;;;13.01;68.82;101289.59;5016017;28;20190;-68
2022/05/30 06:14:11;;;;;;;6.22;2.13;;;;;;;13.26;68.87;101294.22;5013294;28;20132;-69
2022/05/30 06:16:39;;;;;;;8.63;2.53;;;;;;;13.40;68.61;101288.78;5027807;28;20029;-68
2022/05/30 06:19:06;;;;;;;5.68;2.22;;;;;;;13.08;68.35;101296.25;5026618;28;20036;-69
2022/05/30 06:21:33;;;;;;;5.43;2.17;;;;;;;12.74;69.45;101297.59;5022416;28;20043;-68
2022/05/30 06:24:00;;;;;;;6.05;2.30;;;;;;;12.85;67.97;101303.16;5019631;28;20037;-69
2022/05/30 06:26:44;;;;;;;5.20;2.45;;;;;;;13.40;68.25;101303.97;5010580;28;20161;-68
2022/05/30 06:29:23;;;;;;;5.10;2.63;;;;;;;13.08;68.21;101298.06;5016299;28;20883;-68
2022/05/30 06:31:49;;;;;;;6.68;2.20;;;;;;;12.76;69.27;101300.22;5012763;28;20788;-69
2022/05/30 06:34:15;;;;;;;3.85;1.90;;;;;;;13.11;66.25;101301.41;5009160;28;20196;-68
2022/05/30 06:36:44;;;;;;;5.60;2.03;;;;;;;13.34;66.81;101307.91;5009871;28;20107;-68
2022/05/30 06:39:10;;;;;;;4.20;2.28;;;;;;;13.84;63.59;101310.78;5019090;28;20425;-69
2022/05/30 06:41:55;;;;;;;4.00;1.95;;;;;;;13.93;63.49;101302.97;5013611;28;20118;-69
2022/05/30 06:44:20;;;;;;;4.18;2.53;;;;;;;14.14;64.08;101311.31;5009154;28;20414;-69
2022/05/30 06:47:04;;;;;;;4.32;2.60;;;;;;;14.42;60.63;101295.94;5036160;27;21694;-67
2022/05/30 06:49:50;;;;;;;5.32;2.22;;;;;;;14.48;62.76;101301.75;5031784;28;20072;-67
2022/05/30 06:52:15;;;;;;;6.82;2.55;;;;;;;14.36;62.21;101305.28;5031893;28;20064;-67
2022/05/30 06:54:42;;;;;;;2.08;1.70;;;;;;;14.52;61.15;101310.44;5031615;28;20037;-67
2022/05/30 06:59:53;;;;;;;2.42;1.40;;;;;;;14.80;58.91;101319.16;5028835;28;20941;-67
2022/05/30 07:02:18;;;;;;;4.47;1.80;;;;;;;15.08;57.25;101318.81;5032402;28;20037;-67
2022/05/30 07:05:22;;;;;;;5.47;1.92;;;;;;;14.50;60.22;101317.72;5037927;28;20637;-67
2022/05/30 07:08:07;;;;;;;3.38;1.98;;;;;;;14.53;59.73;101319.34;5042522;28;20044;-67
2022/05/30 07:10:53;;;;;;;3.33;1.42;;;;;;;15.19;61.41;101318.03;5060887;28;20045;-67
2022/05/30 07:13:20;;;;;;;6.75;1.90;;;;;;;14.85;60.19;101316.97;5029423;28;20044;-68
2022/05/30 07:15:48;;;;;;;2.70;1.60;;;;;;;15.12;57.79;101316.78;5043298;28;20053;-68
2022/05/30 07:18:19;;;;;;;1.60;1.42;;;;;;;14.94;57.20;101325.22;5042975;28;20040;-67
2022/05/30 07:20:53;;;;;;;4.28;1.90;;;;;;;15.52;59.54;101323.53;5059831;28;20109;-67
2022/05/30 07:23:29;;;;;;;5.28;1.20;;;;;;;15.18;56.63;101322.53;5045223;28;20532;-67
2022/05/30 07:26:17;;;;;;;3.47;1.42;;;;;;;15.40;55.40;101319.06;5045157;28;20055;-68
2022/05/30 07:29:01;;;;;;;2.20;1.60;;;;;;;15.13;59.36;101326.53;5044721;28;20060;-68
2022/05/30 07:31:45;;;;;;;3.15;1.30;;;;;;;14.80;58.93;101321.84;5044904;28;20130;-68
2022/05/30 07:34:49;;;;;;;5.88;1.58;;;;;;;14.66;57.53;101318.34;4989362;28;20053;-68
2022/05/30 07:37:30;;;;;;;3.08;1.73;;;;;;;14.55;57.88;101325.44;4974869;28;20046;-68
2022/05/30 07:40:04;;;;;;;2.92;1.48;;;;;;;14.70;57.32;101330.56;5000521;28;20080;-67
2022/05/30 07:42:53;;;;;;;2.55;1.17;;;;;;;14.72;58.42;101325.94;4945483;28;20065;-68
2022/05/30 07:45:42;;;;;;;3.05;1.30;;;;;;;13.59;61.41;101327.69;4907664;29;20193;-67
2022/05/30 07:48:19;;;;;;;2.38;1.23;;;;;;;13.61;61.89;101328.47;4907915;29;20135;-68
2022/05/30 07:51:01;;;;;;;2.90;1.48;;;;;;;13.06;63.72;101324.09;4908196;29;20139;-67
2022/05/30 07:53:41;;;;;;;4.75;1.27;;;;;;;13.33;62.43;101322.28;4925311;29;20054;-67
2022/05/30 07:56:29;;;;;;;1.33;1.10;;;;;;;13.26;64.36;101329.03;4905247;29;20087;-67
2022/05/30 07:58:55;;;;;;;4.50;1.35;;;;;;;13.59;60.02;101319.66;4894133;29;21145;-70
2022/05/30 08:01:22;;;;;;;3.72;1.25;;;;;;;13.48;60.93;101323.06;4894398;29;20088;-69
2022/05/30 08:03:51;;;;;;;4.35;1.10;;;;;;;13.21;61.22;101323.97;4895437;29;20048;-69
2022/05/30 08:06:34;;;;;;;3.85;1.13;;;;;;;13.44;60.66;101325.09;4946778;28;20051;-68
2022/05/30 08:09:19;;;;;;;3.90;0.88;;;;;;;13.65;60.60;101327.28;4952281;28;20053;-68
2022/05/30 08:12:05;;;;;;;2.20;1.17;;;;;;;13.61;61.05;101328.47;4949823;28;20128;-69
2022/05/30 08:14:56;;;;;;;5.35;1.05;;;;;;;14.08;59.75;101326.97;4952278;28;20056;-69
2022/05/30 08:17:25;;;;;;;3.58;1.17;;;;;;;14.00;59.88;101330.19;4950842;28;20153;-68
2022/05/30 08:19:51;;;;;;;2.17;1.02;;;;;;;14.56;60.31;101321.78;4935159;28;20055;-68
2022/05/30 08:22:22;;;;;;;3.67;1.38;;;;;;;14.68;58.05;101324.44;4949590;28;20072;-67
2022/05/30 08:24:48;;;;;;;2.78;1.25;;;;;;;14.09;60.37;101329.56;5033662;28;20688;-66
2022/05/30 08:27:15;;;;;;;1.35;0.80;;;;;;;13.76;59.91;101340.81;5015847;28;20043;-69
2022/05/30 08:29:50;;;;;;;2.00;1.20;;;;;;;14.59;59.11;101326.94;5064870;28;20777;-68
2022/05/30 08:32:17;;;;;;;4.43;1.33;;;;;;;14.46;59.92;101325.13;5063843;28;20324;-69
2022/05/30 08:35:14;;;;;;;2.63;0.90;;;;;;;14.83;57.83;101329.69;5009814;28;20060;-69
2022/05/30 08:37:41;;;;;;;1.20;1.00;;;;;;;14.81;56.23;101328.91;5011965;28;20523;-68
2022/05/30 08:43:37;;;;;;;2.17;1.40;;;;;;;15.43;56.12;101334.13;4991884;28;20045;-67
2022/05/30 08:46:09;;;;;;;2.80;1.10;;;;;;;16.19;52.73;101322.81;4992321;28;20124;-68
2022/05/30 08:49:13;;;;;;;2.70;1.08;;;;;;;16.27;55.27;101322.22;4993485;28;20041;-68
2022/05/30 08:51:58;;;;;;;2.00;1.10;;;;;;;15.50;55.79;101332.69;4993374;28;20045;-68
2022/05/30 08:54:59;;;;;;;4.35;0.90;;;;;;;16.38;49.96;101324.91;5009350;28;20071;-68
2022/05/30 08:57:48;;;;;;;6.82;1.00;;;;;;;15.79;50.03;101331.31;5008962;28;20045;-67
2022/05/30 09:00:23;;;;;;;2.95;0.95;;;;;;;16.23;53.30;101326.13;4991767;28;20033;-67
2022/05/30 09:03:33;;;;;;;3.47;1.10;;;;;;;16.45;52.37;101326.13;4995222;28;20204;-67
2022/05/30 09:06:02;;;;;;;2.97;1.10;;;;;;;16.17;51.81;101330.19;5008669;28;20054;-67
2022/05/30 09:08:37;;;;;;;4.13;1.30;;;;;;;16.44;51.29;101328.94;4985579;28;20453;-67
2022/05/30 09:11:48;;;;;;;3.08;1.10;;;;;;;16.60;51.41;101331.25;4990066;28;20601;-67
2022/05/30 09:14:41;;;;;;;1.65;0.95;;;;;;;16.56;50.50;101334.19;4954185;28;20057;-67
2022/05/30 09:17:16;;;;;;;2.50;1.05;;;;;;;16.36;50.39;101342.16;4977691;28;21026;-67
2022/05/30 09:19:42;;;;;;;1.70;0.70;;;;;;;16.66;50.22;101328.91;4991042;28;20057;-67
2022/05/30 09:22:09;;;;;;;1.83;1.00;;;;;;;16.53;48.56;101334.44;4972213;28;20752;-67
2022/05/30 09:27:36;;;;;;;1.98;1.00;;;;;;;16.21;49.68;101334.31;4972869;28;20050;-67
2022/05/30 09:30:27;;;;;;;2.35;1.30;;;;;;;16.63;51.02;101331.88;4974683;28;20216;-67
2022/05/30 09:33:36;;;;;;;2.53;1.02;;;;;;;16.83;50.22;101335.66;4977761;28;20052;-68
2022/05/30 09:36:46;;;;;;;;;;;;;;;16.49;50.05;101329.44;4962707;28;20204;-67
2022/05/30 09:39:42;;;;;;;3.40;0.80;;;;;;;16.99;50.34;101332.56;4997576;28;19971;-67
2022/05/30 09:42:29;;;;;;;1.60;0.80;;;;;;;17.16;50.99;101333.84;5026379;28;20037;-67
2022/05/30 09:45:07;;;;;;;2.92;1.23;;;;;;;17.10;49.83;101332.53;5046538;28;21185;-67
2022/05/30 09:48:04;;;;;;;2.10;0.77;;;;;;;16.77;50.08;101328.94;5018326;28;20132;-67
2022/05/30 09:50:46;;;;;;;3.00;0.90;;;;;;;17.48;46.65;101326.63;5029929;28;20033;-67
2022/05/30 09:53:33;;;;;;;2.92;1.20;;;;;;;17.81;50.96;101330.13;5029611;28;20789;-67
2022/05/30 09:55:58;;;;;;;5.95;1.23;;;;;;;17.13;49.23;101331.44;5028994;28;20087;-67
2022/05/30 09:58:46;;;;;;;3.75;1.00;;;;;;;17.84;47.83;101335.28;5029092;28;20079;-68
2022/05/30 10:01:36;;;;;;;2.72;1.10;;;;;;;17.76;46.21;101333.22;5022770;28;20828;-67
2022/05/30 10:04:20;;;;;;;1.85;1.13;;;;;;;17.40;46.01;101331.78;5025891;28;20040;-67
2022/05/30 10:07:15;;;;;;;4.25;1.23;;;;;;;17.81;48.19;101332.84;5029777;28;20044;-68
2022/05/30 10:09:51;;;;;;;3.15;1.20;;;;;;;18.01;48.06;101336.50;5028943;28;20040;-68
2022/05/30 10:12:40;;;;;;;5.93;1.50;;;;;;;17.95;47.36;101334.34;5029362;28;20036;-68
2022/05/30 10:15:27;;;;;;;2.45;1.33;;;;;;;17.24;49.33;101332.22;5030408;28;20025;-67
2022/05/30 10:18:17;;;;;;;2.17;1.15;;;;;;;17.23;47.65;101335.06;5047461;28;20709;-67
2022/05/30 10:20:55;;;;;;;3.20;1.48;;;;;;;17.90;44.84;101342.00;5030063;28;20036;-68
2022/05/30 10:30:53;;;;;;;5.18;1.33;;;;;;;17.68;48.14;101348.34;5030587;28;20051;-67
2022/05/30 10:33:48;;;;;;;1.02;0.82;;;;;;;17.56;48.83;101351.09;5022038;28;20167;-68
2022/05/30 10:36:33;;;;;;;2.45;0.90;;;;;;;17.20;45.85;101352.34;5044274;28;20661;-67
2022/05/30 10:39:05;;;;;;;2.47;1.00;;;;;;;17.84;48.13;101351.47;5027427;28;20036;-67
2022/05/30 10:41:43;;;;;;;1.88;1.35;;;;;;;17.81;46.08;101349.88;5028207;28;20044;-68
2022/05/30 10:44:23;;;;;;;3.60;0.90;;;;;;;17.37;44.26;101350.06;5028368;28;20037;-67
2022/05/30 10:47:15;;;;;;;1.75;1.40;;;;;;;16.88;48.04;101346.06;5024443;28;20517;-67
2022/05/30 10:49:58;;;;;;;4.60;1.08;;;;;;;17.72;44.75;101341.69;5041025;28;20041;-67
2022/05/30 10:52:31;;;;;;;3.20;0.95;;;;;;;18.10;44.50;101335.72;5027712;28;20033;-68
2022/05/30 10:55:04;;;;;;;2.30;1.13;;;;;;;17.84;47.63;101336.13;5027142;28;20045;-67
2022/05/30 10:57:39;;;;;;;2.33;1.33;;;;;;;17.84;44.11;101346.06;5028739;28;20033;-68
2022/05/30 11:00:15;;;;;;;1.23;0.77;;;;;;;17.29;44.41;101342.63;5027913;28;20131;-68
2022/05/30 11:02:58;;;;;;;2.40;0.70;;;;;;;17.85;45.43;101345.94;5029636;28;20029;-67
2022/05/30 11:05:35;;;;;;;;;;;;;;;17.48;45.33;101345.50;5028462;28;20073;-67
2022/05/30 11:08:09;;;;;;;1.88;1.00;;;;;;;17.08;43.47;101350.66;5027101;28;19974;-70
2022/05/30 11:10:38;;;;;;;1.52;0.75;;;;;;;17.26;46.01;101346.44;5028001;28;20041;-68
2022/05/30 11:13:15;;;;;;;3.40;1.38;;;;;;;17.74;43.58;101350.56;5043622;28;20037;-66
2022/05/30 11:16:11;;;;;;;1.75;0.88;;;;;;;17.53;43.14;101348.66;5010375;28;20041;-69
2022/05/30 11:19:18;;;;;;;2.60;1.00;;;;;;;17.90;43.94;101350.09;5019151;28;20079;-69
2022/05/30 11:22:14;;;;;;;1.85;1.20;;;;;;;17.77;44.21;101356.56;5028459;28;20048;-68
2022/05/30 11:24:40;;;;;;;1.98;1.27;;;;;;;18.03;44.82;101348.06;5045366;28;20040;-68
2022/05/30 11:27:17;;;;;;;3.33;1.30;;;;;;;18.33;45.04;101347.22;5029094;28;20201;-68
2022/05/30 11:30:13;;;;;;;2.70;1.20;;;;;;;17.55;44.08;101352.06;5030794;28;20114;-68
2022/05/30 11:33:08;;;;;;;1.33;1.08;;;;;;;18.14;44.57;101347.13;5030822;28;20040;-68
2022/05/30 11:35:50;;;;;;;2.30;0.90;;;;;;;17.92;39.43;101356.19;5033809;28;20118;-68
2022/05/30 11:38:24;;;;;;;3.03;0.68;;;;;;;17.99;40.84;101352.00;5033191;28;20060;-68
2022/05/30 11:41:02;;;;;;;1.83;0.88;;;;;;;18.34;39.91;101348.91;5032746;28;20061;-68
2022/05/30 11:44:08;;;;;;;2.65;0.93;;;;;;;18.09;40.48;101350.22;5015778;28;20126;-69
2022/05/30 11:46:49;;;;;;;1.52;0.90;;;;;;;18.11;40.56;101354.47;5034749;28;20088;-68
2022/05/30 11:49:35;;;;;;;4.35;1.45;;;;;;;18.11;42.75;101351.78;5032893;28;20110;-69
2022/05/30 11:52:27;;;;;;;1.60;1.08;;;;;;;17.60;41.08;101352.53;5032641;28;20143;-69
2022/05/30 11:55:00;;;;;;;;;;;;;;;18.31;42.80;101352.72;5034620;28;20805;-69
2022/05/30 11:57:45;;;;;;;2.75;1.40;;;;;;;18.04;43.26;101353.31;5032973;28;19928;-69
2022/05/30 12:00:47;;;;;;;1.95;1.25;;;;;;;18.01;43.16;101358.09;5033168;28;20044;-69
2022/05/30 12:03:32;;;;;;;2.13;1.35;;;;;;;17.60;46.82;101347.16;5033474;28;20049;-69
2022/05/30 12:06:09;;;;;;;4.60;1.65;;;;;;;17.68;48.29;101353.75;5032797;28;20088;-69
2022/05/30 12:09:05;;;;;;;2.22;1.55;;;;;;;17.60;44.93;101354.38;5033474;28;20525;-69
2022/05/30 12:11:59;;;;;;;3.20;1.40;;;;;;;17.84;44.06;101346.94;5033413;28;20032;-70
2022/05/30 12:14:47;;;;;;;1.95;1.50;;;;;;;17.57;47.10;101349.22;5031404;28;20553;-69
2022/05/30 12:17:38;;;;;;;6.47;1.77;;;;;;;17.93;47.50;101358.78;5032694;28;20590;-68
2022/05/30 12:25:54;;;;;;;3.28;1.48;;;;;;;17.15;45.35;101351.00;5033271;28;20052;-68
2022/05/30 12:28:29;;;;;;;2.58;1.70;;;;;;;17.47;49.38;101342.91;5030883;28;20033;-69
2022/05/30 12:31:01;;;;;;;2.78;1.75;;;;;;;16.82;50.63;101348.28;5033447;28;20231;-69
2022/05/30 12:33:29;;;;;;;2.50;1.65;;;;;;;17.92;48.36;101343.56;5014189;28;20783;-70
2022/05/30 12:36:10;;;;;;;2.88;1.27;;;;;;;18.77;42.03;101345.13;5030572;28;20844;-69
2022/05/30 12:39:28;;;;;;;3.97;1.27;;;;;;;19.09;41.89;101356.56;5030282;28;20073;-69